Time;durP1;ratioP1;P1;durP2;ratioP2;P2;SDS_P1;SDS_P2;PMS_P1;PMS_P2;Temp;Humidity;BMP_temperature;BMP_pressure;BME280_temperature;BME280_humidity;BME280_pressure;Samples;Min_cycle;Max_cycle;Signal;HPM_P1;HPM_P2
2021/12/23 00:01:54;;;;;;;;;;;21.50;47.60;;;;;;5044726;28;19921;-63
2021/12/23 00:04:19;;;;;;;;;;;21.60;47.70;;;;;;5045439;28;20287;-63
2021/12/23 00:06:45;;;;;;;;;;;21.60;47.70;;;;;;5041507;28;19912;-63
2021/12/23 00:09:11;;;;;;;;;;;21.50;47.60;;;;;;5043844;28;20375;-61
2021/12/23 00:11:36;;;;;;;;;;;21.50;47.70;;;;;;5046853;28;19939;-63
2021/12/23 00:14:05;;;;;;;;;;;21.50;47.70;;;;;;5046309;28;19925;-64
2021/12/23 00:16:46;;;;;;;;;;;21.50;47.70;;;;;;5045208;28;19912;-64
2021/12/23 00:19:23;;;;;;;;;;;21.40;47.70;;;;;;5043059;28;19954;-63
2021/12/23 00:24:34;;;;;;;;;;;21.40;47.70;;;;;;5047680;28;19951;-63
2021/12/23 00:27:00;;;;;;;;;;;21.40;47.80;;;;;;5044524;28;19917;-61
2021/12/23 00:29:25;;;;;;;;;;;21.40;47.80;;;;;;5046903;28;19913;-67
2021/12/23 00:31:51;;;;;;;;;;;21.40;47.80;;;;;;5043728;28;19917;-62
2021/12/23 00:34:16;;;;;;;;;;;21.30;47.90;;;;;;5045330;28;19920;-67
2021/12/23 00:36:44;;;;;;;;;;;21.30;47.80;;;;;;5043398;28;19912;-61
2021/12/23 00:39:11;;;;;;;;;;;21.30;47.80;;;;;;5045045;28;19920;-62
2021/12/23 00:41:37;;;;;;;;;;;21.30;47.80;;;;;;5042228;28;19924;-67
2021/12/23 00:44:02;;;;;;;;;;;21.30;47.90;;;;;;5044718;28;20376;-63
2021/12/23 00:46:28;;;;;;;;;;;21.20;47.80;;;;;;5043967;28;20274;-63
2021/12/23 00:48:53;;;;;;;;;;;21.30;47.90;;;;;;5045450;28;19913;-63
2021/12/23 00:51:19;;;;;;;;;;;21.20;47.90;;;;;;5041649;28;20001;-62
2021/12/23 00:53:47;;;;;;;;;;;21.20;47.90;;;;;;5044658;28;19908;-63
2021/12/23 00:56:13;;;;;;;;;;;21.20;47.90;;;;;;5044343;28;19921;-63
2021/12/23 00:58:38;;;;;;;;;;;21.20;47.90;;;;;;5044634;28;19982;-63
2021/12/23 01:01:04;;;;;;;;;;;21.20;47.90;;;;;;5044228;28;20429;-65
2021/12/23 01:03:30;;;;;;;;;;;21.20;48.00;;;;;;5045909;28;19905;-61
2021/12/23 01:05:56;;;;;;;;;;;21.10;48.00;;;;;;5044010;28;19916;-69
2021/12/23 01:08:21;;;;;;;;;;;21.10;48.00;;;;;;5043681;28;19920;-69
2021/12/23 01:10:49;;;;;;;;;;;21.10;48.00;;;;;;5044474;28;19908;-62
2021/12/23 01:13:17;;;;;;;;;;;21.10;48.00;;;;;;5042373;28;19963;-65
2021/12/23 01:18:30;;;;;;;;;;;21.10;48.00;;;;;;5038280;28;19913;-64
2021/12/23 01:21:04;;;;;;;;;;;21.00;48.00;;;;;;5044178;28;19920;-65
2021/12/23 01:23:31;;;;;;;;;;;21.00;48.00;;;;;;5044827;28;20003;-68
2021/12/23 01:25:56;;;;;;;;;;;21.00;48.00;;;;;;5044776;28;19912;-64
2021/12/23 01:28:23;;;;;;;;;;;21.00;48.10;;;;;;5043070;28;19908;-62
2021/12/23 01:30:49;;;;;;;;;;;21.00;48.10;;;;;;5044389;28;20045;-64
2021/12/23 01:33:15;;;;;;;;;;;20.90;48.00;;;;;;5043406;28;20609;-66
2021/12/23 01:35:41;;;;;;;;;;;21.00;48.60;;;;;;5043144;28;19912;-65
2021/12/23 01:38:06;;;;;;;;;;;20.90;48.10;;;;;;5043905;28;19995;-63
2021/12/23 01:40:32;;;;;;;;;;;20.90;48.10;;;;;;5042917;28;20514;-63
2021/12/23 01:42:58;;;;;;;;;;;20.90;48.20;;;;;;5038858;28;19942;-62
2021/12/23 01:45:24;;;;;;;;;;;20.90;48.20;;;;;;5043291;28;19913;-67
2021/12/23 01:47:50;;;;;;;;;;;20.90;48.20;;;;;;5038930;28;19908;-65
2021/12/23 01:50:18;;;;;;;;;;;20.90;48.20;;;;;;5042409;28;19917;-62
2021/12/23 01:52:44;;;;;;;;;;;20.90;48.20;;;;;;5041281;28;20392;-67
2021/12/23 01:55:10;;;;;;;;;;;20.90;48.20;;;;;;5045845;28;19968;-63
2021/12/23 01:57:36;;;;;;;;;;;20.80;48.10;;;;;;5044821;28;19916;-63
2021/12/23 02:00:04;;;;;;;;;;;20.80;48.20;;;;;;5045062;28;19916;-63
2021/12/23 02:02:31;;;;;;;;;;;20.80;48.20;;;;;;5043959;28;20390;-63
2021/12/23 02:04:56;;;;;;;;;;;20.80;48.20;;;;;;5043095;28;19923;-67
2021/12/23 02:07:22;;;;;;;;;;;20.80;48.20;;;;;;5046250;28;19917;-61
2021/12/23 02:09:48;;;;;;;;;;;20.70;48.20;;;;;;5047413;28;19981;-61
2021/12/23 02:12:14;;;;;;;;;;;20.70;48.20;;;;;;5047131;28;19947;-63
2021/12/23 02:14:39;;;;;;;;;;;20.70;48.20;;;;;;5048809;28;20048;-62
2021/12/23 02:17:05;;;;;;;;;;;20.70;48.30;;;;;;5048885;28;20107;-66
2021/12/23 02:19:31;;;;;;;;;;;20.70;48.30;;;;;;5041983;28;20355;-63
2021/12/23 02:21:57;;;;;;;;;;;20.70;48.30;;;;;;5045105;28;19915;-63
2021/12/23 02:24:22;;;;;;;;;;;20.70;48.40;;;;;;5048571;28;19912;-63
2021/12/23 02:26:50;;;;;;;;;;;20.70;48.40;;;;;;5047691;28;19949;-61
2021/12/23 02:29:16;;;;;;;;;;;20.60;48.30;;;;;;5046015;28;19913;-68
2021/12/23 02:31:45;;;;;;;;;;;20.60;48.30;;;;;;5047679;28;19916;-62
2021/12/23 02:34:11;;;;;;;;;;;20.60;48.40;;;;;;5047636;28;19963;-61
2021/12/23 02:36:36;;;;;;;;;;;20.60;48.40;;;;;;5043973;28;19912;-63
2021/12/23 02:39:02;;;;;;;;;;;20.60;48.40;;;;;;5047234;28;20416;-64
2021/12/23 02:41:27;;;;;;;;;;;20.60;48.40;;;;;;5041535;28;19912;-62
2021/12/23 02:43:53;;;;;;;;;;;20.60;48.40;;;;;;5043558;28;19915;-68
2021/12/23 02:46:19;;;;;;;;;;;20.60;48.50;;;;;;5044313;28;19993;-67
2021/12/23 02:48:45;;;;;;;;;;;20.50;48.50;;;;;;5047940;28;19913;-63
2021/12/23 02:51:11;;;;;;;;;;;20.50;48.50;;;;;;5042672;28;20035;-66
2021/12/23 02:53:38;;;;;;;;;;;20.50;48.50;;;;;;5046113;28;20280;-62
2021/12/23 02:56:06;;;;;;;;;;;20.50;48.50;;;;;;5048162;28;19987;-64
2021/12/23 02:58:32;;;;;;;;;;;20.50;48.50;;;;;;5043253;28;19904;-63
2021/12/23 03:00:59;;;;;;;;;;;20.50;48.50;;;;;;5044186;28;19931;-67
2021/12/23 03:03:25;;;;;;;;;;;20.50;48.60;;;;;;5045000;28;19908;-63
2021/12/23 03:05:52;;;;;;;;;;;20.40;48.50;;;;;;5045570;28;19923;-63
2021/12/23 03:08:31;;;;;;;;;;;20.50;49.10;;;;;;5045994;28;19919;-64
2021/12/23 03:10:57;;;;;;;;;;;20.50;48.60;;;;;;5042300;28;20050;-62
2021/12/23 03:13:23;;;;;;;;;;;20.40;48.60;;;;;;5047532;28;20003;-67
2021/12/23 03:15:48;;;;;;;;;;;20.40;48.60;;;;;;5044369;28;19905;-61
2021/12/23 03:18:14;;;;;;;;;;;20.40;48.60;;;;;;5047312;28;20376;-62
2021/12/23 03:20:39;;;;;;;;;;;20.40;48.60;;;;;;5045411;28;19963;-65
2021/12/23 03:23:05;;;;;;;;;;;20.40;48.70;;;;;;5046200;28;19919;-62
2021/12/23 03:25:30;;;;;;;;;;;20.40;48.70;;;;;;5047985;28;19908;-61
2021/12/23 03:27:56;;;;;;;;;;;20.40;48.70;;;;;;5044351;28;19923;-64
2021/12/23 03:30:26;;;;;;;;;;;20.40;48.70;;;;;;5044423;28;19911;-63
2021/12/23 03:32:52;;;;;;;;;;;20.40;48.70;;;;;;5046569;28;19981;-67
2021/12/23 03:35:17;;;;;;;;;;;20.40;48.70;;;;;;5043961;28;19913;-63
2021/12/23 03:37:43;;;;;;;;;;;20.40;48.70;;;;;;5042181;28;19963;-65
2021/12/23 03:40:09;;;;;;;;;;;20.30;48.70;;;;;;5047074;28;20061;-64
2021/12/23 03:42:35;;;;;;;;;;;20.30;48.70;;;;;;5045852;28;19991;-68
2021/12/23 03:45:00;;;;;;;;;;;20.30;48.70;;;;;;5046303;28;19912;-64
2021/12/23 03:47:26;;;;;;;;;;;20.30;48.80;;;;;;5044694;28;19912;-68
2021/12/23 03:49:51;;;;;;;;;;;20.30;48.80;;;;;;5045518;28;19912;-64
2021/12/23 03:52:17;;;;;;;;;;;20.30;48.80;;;;;;5043597;28;19908;-64
2021/12/23 03:54:42;;;;;;;;;;;20.30;48.80;;;;;;5047010;28;19916;-68
2021/12/23 03:57:08;;;;;;;;;;;20.20;48.80;;;;;;5046068;28;20349;-63
2021/12/23 03:59:33;;;;;;;;;;;20.20;48.80;;;;;;5044677;28;19909;-68
2021/12/23 04:01:59;;;;;;;;;;;20.30;48.90;;;;;;5042542;28;19924;-62
2021/12/23 04:04:25;;;;;;;;;;;20.20;48.90;;;;;;5047053;28;20011;-64
2021/12/23 04:06:51;;;;;;;;;;;20.20;48.90;;;;;;5044325;28;20031;-64
2021/12/23 04:09:18;;;;;;;;;;;20.20;48.90;;;;;;5045815;28;19917;-63
2021/12/23 04:11:43;;;;;;;;;;;20.20;49.00;;;;;;5043482;28;19908;-63
2021/12/23 04:14:08;;;;;;;;;;;20.20;49.00;;;;;;5043900;28;19924;-64
2021/12/23 04:16:34;;;;;;;;;;;20.20;49.00;;;;;;5046202;28;20003;-63
2021/12/23 04:19:00;;;;;;;;;;;20.20;49.00;;;;;;5045660;28;19920;-62
2021/12/23 04:21:25;;;;;;;;;;;20.20;49.10;;;;;;5040564;28;19940;-64
2021/12/23 04:23:52;;;;;;;;;;;20.20;49.10;;;;;;5043252;28;19913;-67
2021/12/23 04:26:17;;;;;;;;;;;20.20;49.10;;;;;;5040756;28;19924;-64
2021/12/23 04:28:46;;;;;;;;;;;20.20;49.10;;;;;;5045833;28;20487;-63
2021/12/23 04:31:13;;;;;;;;;;;20.10;49.10;;;;;;5043408;28;20368;-62
2021/12/23 04:33:38;;;;;;;;;;;20.10;49.10;;;;;;5043700;28;20369;-64
2021/12/23 04:36:04;;;;;;;;;;;20.10;49.10;;;;;;5043048;28;19990;-64
2021/12/23 04:38:29;;;;;;;;;;;20.10;49.20;;;;;;5044690;28;19915;-63
2021/12/23 04:40:55;;;;;;;;;;;20.10;49.20;;;;;;5041929;28;19913;-63
2021/12/23 04:43:21;;;;;;;;;;;20.10;49.20;;;;;;5043769;28;19923;-63
2021/12/23 04:45:46;;;;;;;;;;;20.10;49.20;;;;;;5045031;28;19912;-66
2021/12/23 04:48:12;;;;;;;;;;;20.10;49.20;;;;;;5040495;28;20405;-61
2021/12/23 04:50:37;;;;;;;;;;;20.10;49.30;;;;;;5044142;28;19913;-68
2021/12/23 04:53:02;;;;;;;;;;;20.10;49.30;;;;;;5041037;28;20356;-62
2021/12/23 04:55:30;;;;;;;;;;;20.00;49.30;;;;;;5040930;28;20153;-65
2021/12/23 04:57:56;;;;;;;;;;;20.00;49.30;;;;;;5045660;28;19915;-61
2021/12/23 05:00:22;;;;;;;;;;;20.00;49.40;;;;;;5041839;28;19948;-64
2021/12/23 05:02:48;;;;;;;;;;;20.00;49.50;;;;;;5037157;28;20424;-63
2021/12/23 05:05:14;;;;;;;;;;;20.00;49.50;;;;;;5045029;28;19915;-64
2021/12/23 05:07:39;;;;;;;;;;;20.00;49.50;;;;;;5043469;28;19920;-61
2021/12/23 05:10:09;;;;;;;;;;;20.00;49.60;;;;;;5043470;28;19912;-64
2021/12/23 05:12:41;;;;;;;;;;;20.00;49.50;;;;;;5038996;28;19920;-64
2021/12/23 05:15:07;;;;;;;;;;;20.00;49.60;;;;;;5044635;28;19920;-66
2021/12/23 05:17:33;;;;;;;;;;;19.90;49.60;;;;;;5041659;28;19922;-67
2021/12/23 05:19:58;;;;;;;;;;;20.00;49.60;;;;;;5040974;28;19917;-64
2021/12/23 05:22:24;;;;;;;;;;;20.00;49.70;;;;;;5039395;28;20300;-63
2021/12/23 05:24:50;;;;;;;;;;;19.90;49.60;;;;;;5044421;28;19928;-64
2021/12/23 05:27:15;;;;;;;;;;;19.90;49.70;;;;;;5044671;28;20358;-62
2021/12/23 05:29:41;;;;;;;;;;;19.90;49.70;;;;;;5042802;28;20031;-68
2021/12/23 05:32:07;;;;;;;;;;;19.90;49.70;;;;;;5042188;28;20372;-64
2021/12/23 05:34:32;;;;;;;;;;;19.90;49.70;;;;;;5044894;28;19916;-64
2021/12/23 05:36:58;;;;;;;;;;;19.90;49.70;;;;;;5041335;28;19912;-62
2021/12/23 05:39:24;;;;;;;;;;;19.90;49.80;;;;;;5045051;28;19952;-64
2021/12/23 05:41:49;;;;;;;;;;;19.90;49.80;;;;;;5041635;28;20278;-63
2021/12/23 05:44:15;;;;;;;;;;;19.90;49.90;;;;;;5045908;28;19928;-63
2021/12/23 05:46:40;;;;;;;;;;;19.90;49.90;;;;;;5044808;28;19928;-68
2021/12/23 05:49:06;;;;;;;;;;;19.90;49.90;;;;;;5043139;28;19908;-68
2021/12/23 05:51:32;;;;;;;;;;;19.80;49.90;;;;;;5040773;28;19924;-64
2021/12/23 05:53:57;;;;;;;;;;;19.80;49.90;;;;;;5044971;28;19912;-64
2021/12/23 05:56:23;;;;;;;;;;;19.90;50.00;;;;;;5041530;28;19917;-64
2021/12/23 05:58:48;;;;;;;;;;;19.90;50.10;;;;;;5042762;28;19912;-64
2021/12/23 06:01:14;;;;;;;;;;;19.90;50.10;;;;;;5040418;28;19986;-61
2021/12/23 06:03:40;;;;;;;;;;;19.90;50.10;;;;;;5044504;28;19912;-68
2021/12/23 06:06:05;;;;;;;;;;;19.90;50.20;;;;;;5040153;28;19913;-66
2021/12/23 06:08:31;;;;;;;;;;;19.90;50.10;;;;;;5044413;28;20498;-64
2021/12/23 06:10:57;;;;;;;;;;;19.80;50.20;;;;;;5045342;28;19982;-64
2021/12/23 06:13:22;;;;;;;;;;;19.80;50.20;;;;;;5044433;28;20004;-64
2021/12/23 06:15:47;;;;;;;;;;;19.80;50.10;;;;;;5041327;28;20352;-64
2021/12/23 06:18:13;;;;;;;;;;;19.90;50.20;;;;;;5046165;28;19971;-69
2021/12/23 06:20:38;;;;;;;;;;;19.80;50.30;;;;;;5042041;28;19912;-68
2021/12/23 06:23:05;;;;;;;;;;;19.80;50.30;;;;;;5040962;28;19908;-64
2021/12/23 06:25:31;;;;;;;;;;;19.80;50.30;;;;;;5039986;28;19999;-69
2021/12/23 06:27:56;;;;;;;;;;;19.80;50.30;;;;;;5045399;28;19916;-62
2021/12/23 06:30:22;;;;;;;;;;;19.80;50.30;;;;;;5044117;28;19909;-65
2021/12/23 06:32:52;;;;;;;;;;;19.80;50.30;;;;;;5044853;28;20435;-63
2021/12/23 06:35:19;;;;;;;;;;;19.80;50.30;;;;;;5042103;28;20372;-64
2021/12/23 06:37:44;;;;;;;;;;;19.80;50.40;;;;;;5041380;28;20071;-66
2021/12/23 06:40:10;;;;;;;;;;;19.80;50.40;;;;;;5039478;28;20011;-65
2021/12/23 06:42:36;;;;;;;;;;;19.80;50.50;;;;;;5037989;28;19909;-64
2021/12/23 06:45:02;;;;;;;;;;;19.80;51.00;;;;;;5038413;28;19936;-64
2021/12/23 06:47:28;;;;;;;;;;;20.00;51.70;;;;;;5040073;28;20241;-64
2021/12/23 06:49:53;;;;;;;;;;;20.20;51.50;;;;;;5042972;28;19905;-68
2021/12/23 06:52:19;;;;;;;;;;;20.40;51.20;;;;;;5044575;28;19916;-67
2021/12/23 06:54:47;;;;;;;;;;;20.60;51.20;;;;;;5045451;28;19920;-65
2021/12/23 06:57:13;;;;;;;;;;;20.80;51.00;;;;;;5048795;28;19999;-68
2021/12/23 06:59:39;;;;;;;;;;;20.90;51.10;;;;;;5043073;28;20722;-67
2021/12/23 07:02:04;;;;;;;;;;;21.00;50.70;;;;;;5035906;28;19936;-68
2021/12/23 07:04:33;;;;;;;;;;;21.20;50.70;;;;;;5044384;28;19917;-64
2021/12/23 07:07:08;;;;;;;;;;;21.30;51.00;;;;;;5044252;28;19959;-63
2021/12/23 07:09:38;;;;;;;;;;;21.50;50.70;;;;;;5050393;28;19916;-64
2021/12/23 07:12:05;;;;;;;;;;;21.70;50.60;;;;;;5041445;28;20439;-64
2021/12/23 07:14:30;;;;;;;;;;;21.80;50.50;;;;;;5047093;28;19912;-64
2021/12/23 07:16:56;;;;;;;;;;;21.90;50.60;;;;;;5048455;28;19913;-65
2021/12/23 07:19:21;;;;;;;;;;;22.00;50.30;;;;;;5047488;28;20371;-65
2021/12/23 07:21:47;;;;;;;;;;;22.20;50.30;;;;;;5040557;28;19996;-65
2021/12/23 07:24:12;;;;;;;;;;;22.30;50.30;;;;;;5047968;28;19915;-64
2021/12/23 07:26:38;;;;;;;;;;;22.20;50.10;;;;;;5047875;28;20126;-64
2021/12/23 07:29:03;;;;;;;;;;;22.10;50.30;;;;;;5044507;28;20686;-64
2021/12/23 07:31:29;;;;;;;;;;;22.10;50.50;;;;;;5042635;28;19974;-64
2021/12/23 07:33:54;;;;;;;;;;;22.10;48.90;;;;;;5044083;28;19998;-64
2021/12/23 07:36:22;;;;;;;;;;;22.10;49.00;;;;;;5043985;28;19923;-63
2021/12/23 07:38:48;;;;;;;;;;;22.40;49.00;;;;;;5043148;28;19912;-66
2021/12/23 07:41:14;;;;;;;;;;;22.60;48.90;;;;;;5040583;28;19966;-64
2021/12/23 07:46:06;;;;;;;;;;;22.70;48.80;;;;;;5040659;28;19939;-64
2021/12/23 07:48:31;;;;;;;;;;;22.70;49.10;;;;;;5040254;28;19917;-65
2021/12/23 07:50:58;;;;;;;;;;;22.60;47.90;;;;;;5040970;28;19921;-64
2021/12/23 07:53:23;;;;;;;;;;;22.60;47.20;;;;;;5045136;28;20264;-65
2021/12/23 07:55:49;;;;;;;;;;;22.50;47.60;;;;;;5047056;28;19921;-64
2021/12/23 07:58:14;;;;;;;;;;;22.50;48.00;;;;;;5045843;28;19991;-62
2021/12/23 08:00:40;;;;;;;;;;;22.50;48.20;;;;;;5043184;28;19917;-64
2021/12/23 08:03:05;;;;;;;;;;;22.50;48.50;;;;;;5045072;28;19955;-65
2021/12/23 08:05:31;;;;;;;;;;;22.50;48.60;;;;;;5046188;28;20401;-64
2021/12/23 08:07:57;;;;;;;;;;;22.50;48.80;;;;;;5045419;28;20450;-63
2021/12/23 08:10:22;;;;;;;;;;;22.50;49.00;;;;;;5041876;28;21976;-65
2021/12/23 08:12:48;;;;;;;;;;;22.50;49.10;;;;;;5043771;28;19913;-64
2021/12/23 08:15:14;;;;;;;;;;;22.50;49.10;;;;;;5044239;28;19916;-68
2021/12/23 08:17:39;;;;;;;;;;;22.50;49.10;;;;;;5043635;28;19999;-64
2021/12/23 08:20:05;;;;;;;;;;;22.60;49.40;;;;;;5045409;28;19909;-67
2021/12/23 08:22:31;;;;;;;;;;;22.60;49.50;;;;;;5043219;28;19959;-64
2021/12/23 08:24:56;;;;;;;;;;;22.60;49.50;;;;;;5047323;28;19917;-67
2021/12/23 08:27:26;;;;;;;;;;;22.60;49.70;;;;;;5044927;28;19913;-68
2021/12/23 08:29:51;;;;;;;;;;;22.60;49.80;;;;;;5041925;28;19913;-65
2021/12/23 08:32:18;;;;;;;;;;;22.60;49.80;;;;;;5045486;28;20398;-67
2021/12/23 08:34:44;;;;;;;;;;;22.60;49.80;;;;;;5042672;28;19989;-64
2021/12/23 08:37:11;;;;;;;;;;;22.70;50.70;;;;;;5040211;28;19947;-64
2021/12/23 08:39:37;;;;;;;;;;;22.70;50.80;;;;;;5042745;28;19913;-65
2021/12/23 08:42:03;;;;;;;;;;;22.70;51.50;;;;;;5047028;28;20306;-64
2021/12/23 08:44:28;;;;;;;;;;;22.70;51.30;;;;;;5047150;28;19920;-64
2021/12/23 08:46:54;;;;;;;;;;;22.80;51.50;;;;;;5043177;28;19916;-63
2021/12/23 08:49:19;;;;;;;;;;;22.80;51.70;;;;;;5045974;28;19919;-63
2021/12/23 08:51:45;;;;;;;;;;;22.80;51.30;;;;;;5043374;28;19916;-63
2021/12/23 08:54:10;;;;;;;;;;;22.80;52.00;;;;;;5046654;28;20372;-66
2021/12/23 08:56:36;;;;;;;;;;;22.80;51.70;;;;;;5046037;28;19940;-61
2021/12/23 08:59:01;;;;;;;;;;;22.80;52.00;;;;;;5047524;28;20288;-63
2021/12/23 09:01:27;;;;;;;;;;;22.90;51.80;;;;;;5041712;28;19928;-65
2021/12/23 09:03:52;;;;;;;;;;;22.90;51.50;;;;;;5044538;28;19912;-67
2021/12/23 09:06:18;;;;;;;;;;;22.90;51.90;;;;;;5038572;28;20019;-67
2021/12/23 09:08:43;;;;;;;;;;;22.90;51.60;;;;;;5044305;28;19909;-63
2021/12/23 09:11:09;;;;;;;;;;;22.90;51.80;;;;;;5043800;28;20003;-66
2021/12/23 09:13:34;;;;;;;;;;;22.90;52.40;;;;;;5045293;28;19920;-63
2021/12/23 09:16:00;;;;;;;;;;;22.90;51.90;;;;;;5039869;28;19917;-63
2021/12/23 09:18:26;;;;;;;;;;;22.90;52.30;;;;;;5044456;28;19916;-67
2021/12/23 09:20:51;;;;;;;;;;;22.90;52.60;;;;;;5044186;28;20225;-62
2021/12/23 09:23:18;;;;;;;;;;;22.90;52.60;;;;;;5043188;28;19913;-63
2021/12/23 09:25:45;;;;;;;;;;;23.00;52.50;;;;;;5040666;28;19913;-63
2021/12/23 09:28:26;;;;;;;;;;;23.00;52.40;;;;;;5042488;28;20007;-62
2021/12/23 09:33:37;;;;;;;;;;;23.00;53.00;;;;;;5042195;28;19920;-62
2021/12/23 09:36:03;;;;;;;;;;;23.00;52.10;;;;;;5044395;28;19917;-66
2021/12/23 09:38:28;;;;;;;;;;;23.10;52.30;;;;;;5041037;28;19908;-65
2021/12/23 09:40:57;;;;;;;;;;;23.00;52.20;;;;;;5042020;28;19909;-65
2021/12/23 09:43:25;;;;;;;;;;;23.10;52.60;;;;;;5044780;28;19915;-64
2021/12/23 09:45:50;;;;;;;;;;;23.10;52.80;;;;;;5045101;28;19966;-62
2021/12/23 09:48:19;;;;;;;;;;;23.10;53.50;;;;;;5044747;28;20001;-66
2021/12/23 09:50:44;;;;;;;;;;;23.10;53.20;;;;;;5044606;28;19952;-64
2021/12/23 09:53:13;;;;;;;;;;;23.10;53.00;;;;;;5043044;28;20013;-63
2021/12/23 09:55:39;;;;;;;;;;;23.10;53.00;;;;;;5045953;28;20667;-62
2021/12/23 09:58:05;;;;;;;;;;;23.10;53.10;;;;;;5045839;28;19913;-64
2021/12/23 10:00:31;;;;;;;;;;;23.20;53.30;;;;;;5039565;28;19997;-62
2021/12/23 10:02:57;;;;;;;;;;;23.20;53.60;;;;;;5037575;28;19959;-67
2021/12/23 10:05:27;;;;;;;;;;;23.20;53.50;;;;;;5043442;28;20009;-63
2021/12/23 10:07:54;;;;;;;;;;;23.20;53.00;;;;;;5037804;28;20427;-64
2021/12/23 10:10:46;;;;;;;;;;;23.20;53.30;;;;;;5040619;28;19912;-65
2021/12/23 10:32:52;;;;;;;;;;;23.40;52.40;;;;;;5040524;28;20012;-63
2021/12/23 10:38:05;;;;;;;;;;;23.40;52.80;;;;;;5038772;28;20001;-64
2021/12/23 10:40:32;;;;;;;;;;;23.40;53.00;;;;;;5041364;28;20559;-63
2021/12/23 10:42:58;;;;;;;;;;;23.40;52.10;;;;;;5045932;28;20017;-67
2021/12/23 10:45:23;;;;;;;;;;;23.40;52.10;;;;;;5046664;28;19955;-62
2021/12/23 10:47:57;;;;;;;;;;;23.40;52.60;;;;;;5047003;28;19916;-67
2021/12/23 10:50:32;;;;;;;;;;;23.40;51.80;;;;;;5042736;28;19995;-61
2021/12/23 10:53:04;;;;;;;;;;;23.40;52.60;;;;;;5043361;28;19947;-61
2021/12/23 10:58:16;;;;;;;;;;;23.50;52.50;;;;;;5042567;28;20400;-64
2021/12/23 11:00:46;;;;;;;;;;;23.50;52.20;;;;;;5037530;28;20344;-65
2021/12/23 11:06:01;;;;;;;;;;;23.50;52.20;;;;;;5045054;28;20479;-63
2021/12/23 11:11:23;;;;;;;;;;;23.50;52.40;;;;;;5049617;28;19916;-70
2021/12/23 11:41:15;;;;;;;;;;;23.60;51.90;;;;;;5043837;28;19909;-62
2021/12/23 11:46:14;;;;;;;;;;;23.70;52.60;;;;;;5039147;28;19913;-61
2021/12/23 11:48:43;;;;;;;;;;;23.70;52.20;;;;;;5042246;28;20310;-65
2021/12/23 11:51:15;;;;;;;;;;;23.70;51.80;;;;;;5042377;28;19909;-65
2021/12/23 11:53:41;;;;;;;;;;;23.70;52.50;;;;;;5037805;28;19973;-65
2021/12/23 11:56:08;;;;;;;;;;;23.70;52.20;;;;;;5044908;28;19958;-63
2021/12/23 11:58:34;;;;;;;;;;;23.70;52.00;;;;;;5043304;28;19917;-68
2021/12/23 12:01:04;;;;;;;;;;;23.70;52.10;;;;;;5035750;28;19920;-64
2021/12/23 12:03:29;;;;;;;;;;;23.70;52.50;;;;;;5044411;28;19924;-63
2021/12/23 12:06:15;;;;;;;;;;;23.70;52.50;;;;;;5036196;28;19991;-66
2021/12/23 12:08:41;;;;;;;;;;;23.70;52.00;;;;;;5040892;28;19982;-66
2021/12/23 12:11:17;;;;;;;;;;;23.70;52.00;;;;;;5044414;28;19917;-63
2021/12/23 12:13:42;;;;;;;;;;;23.70;51.70;;;;;;5039712;28;19928;-61
2021/12/23 12:16:24;;;;;;;;;;;23.70;51.50;;;;;;5032835;28;19917;-65
2021/12/23 12:18:50;;;;;;;;;;;23.70;49.30;;;;;;5033474;28;19917;-64
2021/12/23 12:21:23;;;;;;;;;;;23.70;46.00;;;;;;5038659;28;19919;-65
2021/12/23 12:24:05;;;;;;;;;;;23.50;45.60;;;;;;5038545;28;20635;-65
2021/12/23 12:26:32;;;;;;;;;;;23.50;45.80;;;;;;5039458;28;19929;-67
2021/12/23 12:28:59;;;;;;;;;;;23.40;46.10;;;;;;5038502;28;19912;-64
2021/12/23 12:31:37;;;;;;;;;;;23.40;45.80;;;;;;5037302;28;19932;-66
2021/12/23 12:34:05;;;;;;;;;;;23.30;46.00;;;;;;5037521;28;19917;-64
2021/12/23 12:36:31;;;;;;;;;;;23.20;46.00;;;;;;5025278;28;19912;-67
2021/12/23 12:39:03;;;;;;;;;;;23.20;45.80;;;;;;5040554;28;19916;-63
2021/12/23 12:41:30;;;;;;;;;;;23.20;46.00;;;;;;5036022;28;19913;-63
2021/12/23 12:44:11;;;;;;;;;;;23.10;45.90;;;;;;5036609;28;19913;-66
2021/12/23 12:46:40;;;;;;;;;;;23.10;46.00;;;;;;5040464;28;20269;-66
2021/12/23 12:49:14;;;;;;;;;;;23.10;46.00;;;;;;5033186;28;19920;-65
2021/12/23 12:51:41;;;;;;;;;;;23.00;46.20;;;;;;5035421;28;19923;-66
2021/12/23 12:54:09;;;;;;;;;;;23.00;46.20;;;;;;5038662;28;19913;-66
2021/12/23 12:56:36;;;;;;;;;;;22.90;46.30;;;;;;5035103;28;19909;-64
2021/12/23 12:59:06;;;;;;;;;;;22.90;46.30;;;;;;5041124;28;19923;-67
2021/12/23 13:01:37;;;;;;;;;;;22.90;46.40;;;;;;5034826;28;19982;-67
2021/12/23 13:04:05;;;;;;;;;;;22.80;46.40;;;;;;5038076;28;19967;-65
2021/12/23 13:06:40;;;;;;;;;;;22.80;46.50;;;;;;5037257;28;20713;-66
2021/12/23 13:09:10;;;;;;;;;;;22.80;46.60;;;;;;5037685;28;19913;-66
2021/12/23 13:11:36;;;;;;;;;;;22.70;46.70;;;;;;5040882;28;19993;-64
2021/12/23 13:14:03;;;;;;;;;;;22.70;46.70;;;;;;5040598;28;20466;-67
2021/12/23 13:16:29;;;;;;;;;;;22.70;46.70;;;;;;5039439;28;19928;-67
2021/12/23 13:19:14;;;;;;;;;;;22.60;46.70;;;;;;5039558;28;19913;-66
2021/12/23 13:21:40;;;;;;;;;;;22.60;46.70;;;;;;5034952;28;19959;-64
2021/12/23 13:24:09;;;;;;;;;;;22.60;46.80;;;;;;5041257;28;20601;-64
2021/12/23 13:26:34;;;;;;;;;;;22.60;47.00;;;;;;5042973;28;20004;-64
2021/12/23 13:29:01;;;;;;;;;;;22.60;47.10;;;;;;5043484;28;20007;-64
2021/12/23 13:31:28;;;;;;;;;;;22.50;47.10;;;;;;5040779;28;19920;-65
2021/12/23 13:33:55;;;;;;;;;;;22.50;47.10;;;;;;5038602;28;19909;-67
2021/12/23 13:36:28;;;;;;;;;;;22.50;47.10;;;;;;5037466;28;19917;-68
2021/12/23 13:38:55;;;;;;;;;;;22.50;47.20;;;;;;5036705;28;19916;-67
2021/12/23 13:41:29;;;;;;;;;;;22.40;47.30;;;;;;5036633;28;19912;-66
2021/12/23 13:44:00;;;;;;;;;;;22.40;47.30;;;;;;5042285;28;19912;-67
2021/12/23 13:46:27;;;;;;;;;;;22.40;47.50;;;;;;5035273;28;20015;-68
2021/12/23 13:48:54;;;;;;;;;;;22.40;47.50;;;;;;5039785;28;19913;-67
2021/12/23 13:51:21;;;;;;;;;;;22.40;47.60;;;;;;5039535;28;19920;-65
2021/12/23 13:53:47;;;;;;;;;;;22.40;47.60;;;;;;5042351;28;20383;-68
2021/12/23 13:56:13;;;;;;;;;;;22.40;47.70;;;;;;5037066;28;20027;-68
2021/12/23 13:58:39;;;;;;;;;;;22.40;47.80;;;;;;5033672;28;19916;-64
2021/12/23 14:01:04;;;;;;;;;;;22.30;47.90;;;;;;5028507;28;19962;-66
2021/12/23 14:03:30;;;;;;;;;;;22.40;48.70;;;;;;5038790;28;20612;-67
2021/12/23 14:05:55;;;;;;;;;;;22.50;49.20;;;;;;5032567;28;19913;-65
2021/12/23 14:08:21;;;;;;;;;;;22.70;49.00;;;;;;5031972;28;19913;-63
2021/12/23 14:10:47;;;;;;;;;;;22.90;49.20;;;;;;5035166;28;19913;-67
2021/12/23 14:13:16;;;;;;;;;;;23.10;49.30;;;;;;5034066;28;19961;-70
2021/12/23 14:15:49;;;;;;;;;;;23.40;49.20;;;;;;5032169;28;19987;-68
2021/12/23 14:23:25;;;;;;;;;;;24.10;48.40;;;;;;5033350;28;19916;-67
2021/12/23 14:25:51;;;;;;;;;;;24.30;48.20;;;;;;5033419;28;19917;-67
2021/12/23 14:28:19;;;;;;;;;;;24.40;48.10;;;;;;5035576;28;19920;-66
2021/12/23 14:30:49;;;;;;;;;;;24.50;48.20;;;;;;5032066;28;20585;-69
2021/12/23 14:33:18;;;;;;;;;;;24.60;47.80;;;;;;5034578;28;19909;-69
2021/12/23 14:35:53;;;;;;;;;;;24.60;47.80;;;;;;5036072;28;19916;-68
2021/12/23 14:38:30;;;;;;;;;;;24.50;47.90;;;;;;5031033;28;19916;-69
2021/12/23 14:40:57;;;;;;;;;;;24.50;48.00;;;;;;5030243;28;19974;-68
2021/12/23 14:43:22;;;;;;;;;;;24.50;48.10;;;;;;5032291;28;19909;-68
2021/12/23 14:45:57;;;;;;;;;;;24.50;48.20;;;;;;5030069;28;19913;-67
2021/12/23 14:48:24;;;;;;;;;;;24.50;48.20;;;;;;5031677;28;20594;-68
2021/12/23 14:50:52;;;;;;;;;;;24.50;48.30;;;;;;5027571;28;19908;-67
2021/12/23 14:53:18;;;;;;;;;;;24.50;48.30;;;;;;5029103;28;19924;-67
2021/12/23 14:55:52;;;;;;;;;;;24.50;48.30;;;;;;5030932;28;19917;-65
2021/12/23 14:58:18;;;;;;;;;;;24.50;48.30;;;;;;5046820;28;19988;-67
2021/12/23 15:00:45;;;;;;;;;;;24.60;48.60;;;;;;5026521;28;20021;-67
2021/12/23 15:03:10;;;;;;;;;;;24.60;48.80;;;;;;5027909;28;20485;-65
2021/12/23 15:05:37;;;;;;;;;;;24.60;48.80;;;;;;5033247;28;19921;-66
2021/12/23 15:08:04;;;;;;;;;;;24.60;48.80;;;;;;5031769;28;19923;-67
2021/12/23 15:10:33;;;;;;;;;;;24.60;49.10;;;;;;5029748;28;19936;-67
2021/12/23 15:12:59;;;;;;;;;;;24.70;48.10;;;;;;5029307;28;19916;-66
2021/12/23 15:15:29;;;;;;;;;;;24.60;45.60;;;;;;5029693;28;19943;-66
2021/12/23 15:18:00;;;;;;;;;;;24.50;45.40;;;;;;5032173;28;19916;-67
2021/12/23 15:20:29;;;;;;;;;;;24.40;45.60;;;;;;5027933;28;20000;-67
2021/12/23 15:23:00;;;;;;;;;;;24.40;45.30;;;;;;5030215;28;19952;-65
2021/12/23 15:25:36;;;;;;;;;;;24.30;45.20;;;;;;5034573;28;19961;-67
2021/12/23 15:28:03;;;;;;;;;;;24.20;45.40;;;;;;5034240;28;19935;-66
2021/12/23 15:30:29;;;;;;;;;;;24.20;45.40;;;;;;5037831;28;19916;-67
2021/12/23 15:32:55;;;;;;;;;;;24.10;45.60;;;;;;5031264;28;20613;-66